Time;durP1;ratioP1;P1;durP2;ratioP2;P2;SDS_P1;SDS_P2;PMS_P1;PMS_P2;Temp;Humidity;BMP_temperature;BMP_pressure;BME280_temperature;BME280_humidity;BME280_pressure;Samples;Min_cycle;Max_cycle;Signal;HPM_P1;HPM_P2
2023/08/04 00:02:15;;;;;;;14.10;12.70;;;26.90;81.70;;;27.53;55.29;94575.13;5070408;28;20568;-58
2023/08/04 00:04:43;;;;;;;15.47;13.80;;;26.80;81.80;;;27.49;55.24;94566.69;5068880;28;21005;-76
2023/08/04 00:07:10;;;;;;;14.77;13.40;;;26.80;82.20;;;27.44;55.33;94572.06;5074523;28;20473;-75
2023/08/04 00:09:39;;;;;;;15.50;14.00;;;26.80;82.40;;;27.40;55.10;94573.59;5066578;28;20459;-58
2023/08/04 00:12:07;;;;;;;15.17;13.57;;;26.70;82.50;;;27.36;55.52;94583.31;5069518;28;20474;-59
2023/08/04 00:14:34;;;;;;;14.30;12.87;;;26.70;82.80;;;27.33;55.71;94579.22;5077696;28;20449;-74
2023/08/04 00:17:01;;;;;;;14.47;13.03;;;26.70;82.90;;;27.30;55.57;94576.19;5070127;28;21032;-74
2023/08/04 00:19:28;;;;;;;13.83;12.53;;;26.60;83.20;;;27.26;55.75;94583.16;5071213;28;20872;-75
2023/08/04 00:21:56;;;;;;;15.10;13.63;;;26.60;83.30;;;27.20;56.08;94582.25;5065276;28;20478;-73
2023/08/04 00:24:23;;;;;;;18.57;13.80;;;26.50;83.40;;;27.17;56.09;94582.75;5073943;28;20465;-58
2023/08/04 00:26:52;;;;;;;16.50;14.70;;;26.50;83.80;;;27.15;55.97;94580.31;5075214;28;20481;-76
2023/08/04 00:29:19;;;;;;;19.53;17.20;;;26.50;83.80;;;27.12;56.31;94580.00;5068816;28;20543;-75
2023/08/04 00:31:47;;;;;;;34.30;29.73;;;26.50;84.00;;;27.09;56.05;94581.31;5069840;28;20973;-57
2023/08/04 00:34:14;;;;;;;39.00;30.50;;;26.40;84.00;;;27.08;56.24;94578.84;5076877;28;20481;-59
2023/08/04 00:36:41;;;;;;;41.67;32.37;;;26.40;84.40;;;27.03;55.96;94579.59;5070599;28;20478;-73
2023/08/04 00:39:08;;;;;;;37.20;31.47;;;26.40;84.20;;;27.00;55.98;94582.81;5071927;28;20490;-57
2023/08/04 00:41:36;;;;;;;38.53;31.90;;;26.30;84.30;;;26.93;56.43;94588.41;5068112;28;21170;-59
2023/08/04 00:44:04;;;;;;;40.93;26.80;;;26.30;84.80;;;26.87;56.89;94586.69;5074829;28;20569;-75
2023/08/04 00:46:32;;;;;;;28.80;23.70;;;26.20;84.80;;;26.79;56.38;94582.53;5077667;28;20477;-74
2023/08/04 00:48:59;;;;;;;26.50;23.70;;;26.10;84.90;;;26.74;56.68;94584.34;5073762;28;20537;-59
2023/08/04 00:51:26;;;;;;;28.20;22.53;;;26.10;85.60;;;26.69;56.70;94587.78;5075469;28;20474;-58
2023/08/04 00:53:54;;;;;;;30.63;23.40;;;26.00;85.80;;;26.64;56.92;94591.19;5070419;28;20976;-59
2023/08/04 00:56:21;;;;;;;24.30;20.63;;;26.00;86.00;;;26.60;57.13;94589.22;5072977;28;20470;-72
2023/08/04 00:58:48;;;;;;;23.03;19.30;;;26.00;86.50;;;26.56;57.13;94582.72;5073478;28;20547;-57
2023/08/04 01:01:17;;;;;;;21.80;19.50;;;25.90;86.80;;;26.52;57.46;94582.38;5077845;28;20468;-72
2023/08/04 01:03:44;;;;;;;18.90;17.10;;;25.90;87.40;;;26.50;57.56;94578.31;5076476;28;20465;-59
2023/08/04 01:06:16;;;;;;;22.20;17.90;;;25.80;87.60;;;26.50;57.74;94581.81;5073075;28;20485;-57
2023/08/04 01:08:48;;;;;;;23.93;18.07;;;25.80;88.10;;;26.49;57.81;94577.47;5073527;28;20525;-58
2023/08/04 01:11:16;;;;;;;21.73;17.53;;;25.90;88.90;;;26.47;58.09;94577.72;5072935;28;20475;-75
2023/08/04 01:13:43;;;;;;;18.40;16.13;;;25.80;89.30;;;26.46;58.00;94576.09;5073762;28;20455;-75
2023/08/04 01:16:10;;;;;;;30.17;18.00;;;25.80;89.30;;;26.44;58.09;94574.72;5073182;28;20535;-73
2023/08/04 01:18:39;;;;;;;18.93;14.63;;;25.80;89.50;;;26.43;58.23;94573.06;5074272;28;20493;-59
2023/08/04 01:21:08;;;;;;;16.97;13.07;;;25.70;89.50;;;26.40;58.30;94577.09;5072871;28;20834;-58
2023/08/04 01:23:35;;;;;;;18.53;14.07;;;25.70;89.90;;;26.38;58.03;94576.50;5077387;28;20450;-58
2023/08/04 01:26:06;;;;;;;16.67;14.17;;;25.70;89.90;;;26.36;58.00;94573.25;5074409;28;20881;-57
2023/08/04 01:28:34;;;;;;;21.20;12.43;;;25.70;90.00;;;26.35;58.11;94582.38;5068628;28;20508;-58
2023/08/04 01:31:01;;;;;;;15.90;12.10;;;25.70;90.10;;;26.32;57.88;94582.91;5075484;28;20474;-75
2023/08/04 01:33:28;;;;;;;17.93;11.70;;;25.70;90.20;;;26.33;58.16;94589.91;5081384;28;20466;-74
2023/08/04 01:35:55;;;;;;;14.70;12.40;;;25.60;90.20;;;26.31;58.15;94583.97;5071020;28;20478;-71
2023/08/04 01:38:24;;;;;;;13.33;10.90;;;25.60;90.30;;;26.32;58.38;94582.06;5069522;28;21386;-75
2023/08/04 01:40:51;;;;;;;13.03;11.60;;;25.60;90.40;;;26.30;58.58;94582.31;5070103;28;20519;-73
2023/08/04 01:43:20;;;;;;;12.40;11.10;;;25.60;90.60;;;26.26;58.26;94583.88;5071655;28;20462;-57
2023/08/04 01:45:48;;;;;;;12.10;10.80;;;25.60;90.70;;;26.27;58.51;94582.81;5073120;28;20478;-58
2023/08/04 01:48:16;;;;;;;13.73;11.27;;;25.60;90.80;;;26.25;58.84;94593.03;5069940;28;20442;-75
2023/08/04 01:50:43;;;;;;;15.90;11.30;;;25.60;90.90;;;26.24;58.44;94591.38;5069269;28;20493;-58
2023/08/04 01:53:11;;;;;;;13.00;11.43;;;25.60;90.90;;;26.22;58.98;94586.22;5069245;28;20450;-57
2023/08/04 01:55:39;;;;;;;16.67;13.47;;;25.60;90.90;;;26.21;58.51;94598.09;5070547;28;20478;-57
2023/08/04 01:58:06;;;;;;;13.03;11.83;;;25.50;91.10;;;26.20;58.91;94601.84;5074247;28;20960;-57
2023/08/04 02:00:34;;;;;;;12.70;11.30;;;25.50;91.20;;;26.18;58.50;94597.75;5075552;28;20553;-58
2023/08/04 02:03:01;;;;;;;11.60;10.40;;;25.50;91.10;;;26.16;58.85;94597.19;5069017;28;20489;-56
2023/08/04 02:05:28;;;;;;;13.13;11.87;;;25.50;91.30;;;26.15;58.98;94592.84;5071341;28;20536;-58
2023/08/04 02:07:55;;;;;;;13.90;11.83;;;25.50;91.40;;;26.11;59.02;94593.34;5073420;28;20460;-76
2023/08/04 02:10:23;;;;;;;12.80;11.40;;;25.50;91.60;;;26.11;59.45;94595.22;5071590;28;20532;-58
2023/08/04 02:12:51;;;;;;;12.93;11.63;;;25.40;91.60;;;26.08;59.22;94601.91;5071216;28;20526;-75
2023/08/04 02:15:19;;;;;;;17.00;12.73;;;25.40;91.80;;;26.07;58.85;94607.53;5068908;28;20474;-58
2023/08/04 02:17:46;;;;;;;13.70;12.40;;;25.40;91.80;;;26.06;59.29;94606.72;5074937;28;20453;-57
2023/08/04 02:20:13;;;;;;;14.33;12.77;;;25.40;91.90;;;26.04;59.40;94611.56;5072168;28;20555;-75
2023/08/04 02:22:40;;;;;;;17.90;12.17;;;25.40;92.20;;;26.00;58.95;94613.09;5075754;28;20459;-74
2023/08/04 02:25:09;;;;;;;18.60;13.20;;;25.40;92.10;;;25.94;59.24;94612.16;5086323;28;20466;-59
2023/08/04 02:27:36;;;;;;;22.13;12.43;;;25.30;92.00;;;25.91;59.49;94620.72;5072854;28;20468;-57
2023/08/04 02:30:06;;;;;;;14.43;12.97;;;25.30;92.40;;;25.88;59.59;94610.41;5070241;28;20876;-76
2023/08/04 02:32:34;;;;;;;14.37;12.90;;;25.20;92.40;;;25.86;59.42;94615.25;5070809;28;20469;-73
2023/08/04 02:35:01;;;;;;;17.07;14.70;;;25.20;92.50;;;25.85;60.19;94615.47;5069747;28;20451;-74
2023/08/04 02:37:28;;;;;;;14.73;13.20;;;25.20;92.60;;;25.81;59.87;94619.72;5075043;28;20469;-58
2023/08/04 02:39:57;;;;;;;16.00;14.10;;;25.20;92.60;;;25.77;60.08;94622.06;5067196;28;20509;-58
2023/08/04 02:42:24;;;;;;;21.17;13.73;;;25.10;92.60;;;25.72;59.98;94622.00;5075567;28;20446;-58
2023/08/04 02:44:55;;;;;;;17.40;14.47;;;25.10;92.80;;;25.65;59.97;94622.13;5069962;28;20940;-75
2023/08/04 02:47:23;;;;;;;15.80;14.13;;;25.00;92.80;;;25.59;60.24;94623.91;5076196;28;21095;-58
2023/08/04 02:49:51;;;;;;;21.23;13.13;;;25.00;93.10;;;25.53;59.68;94622.19;5067171;28;20462;-58
2023/08/04 02:52:18;;;;;;;22.53;13.80;;;24.90;92.90;;;25.50;60.38;94619.97;5065959;28;20477;-56
2023/08/04 02:54:45;;;;;;;15.30;12.17;;;24.90;93.30;;;25.45;60.51;94621.72;5069816;28;20565;-57
2023/08/04 02:57:13;;;;;;;18.90;12.60;;;24.80;93.40;;;25.41;60.36;94621.41;5069615;28;20485;-73
2023/08/04 02:59:40;;;;;;;14.60;12.40;;;24.80;93.30;;;25.38;60.90;94619.19;5075756;28;20489;-58
2023/08/04 03:02:07;;;;;;;13.70;12.30;;;24.80;93.40;;;25.34;60.84;94621.50;5071171;28;20482;-73
2023/08/04 03:04:36;;;;;;;13.80;12.30;;;24.70;93.60;;;25.33;61.22;94630.66;5069061;28;20959;-58
2023/08/04 03:07:04;;;;;;;17.27;12.13;;;24.70;93.80;;;25.33;61.15;94629.81;5066823;28;20466;-74
2023/08/04 03:09:31;;;;;;;24.47;12.63;;;24.70;94.00;;;25.31;61.10;94632.75;5074333;28;20858;-75
2023/08/04 03:11:58;;;;;;;16.67;14.20;;;24.70;94.20;;;25.30;61.30;94628.44;5074111;28;20481;-58
2023/08/04 03:14:25;;;;;;;16.53;13.50;;;24.70;94.30;;;25.29;61.01;94632.19;5069358;28;20528;-58
2023/08/04 03:16:53;;;;;;;16.00;13.10;;;24.70;94.20;;;25.28;60.97;94622.44;5068909;28;20535;-75
2023/08/04 03:19:20;;;;;;;19.17;13.30;;;24.70;94.10;;;25.25;61.07;94630.97;5074356;28;20501;-74
2023/08/04 03:21:49;;;;;;;15.63;13.20;;;24.60;94.20;;;25.23;61.25;94627.72;5072444;28;20466;-57
2023/08/04 03:24:16;;;;;;;21.00;12.77;;;24.60;94.30;;;25.21;61.22;94627.16;5078117;28;20483;-57
2023/08/04 03:26:43;;;;;;;15.10;12.40;;;24.60;94.60;;;25.22;61.16;94623.38;5068886;28;20474;-74
2023/08/04 03:29:10;;;;;;;20.70;13.20;;;24.60;94.60;;;25.22;61.40;94631.47;5077997;28;20454;-57
2023/08/04 03:31:38;;;;;;;14.87;12.97;;;24.60;94.50;;;25.22;61.65;94634.16;5075370;28;20470;-57
2023/08/04 03:34:05;;;;;;;18.93;13.93;;;24.60;94.60;;;25.23;61.30;94631.22;5071476;28;20518;-74
2023/08/04 03:36:32;;;;;;;21.80;13.40;;;24.60;94.60;;;25.23;61.45;94633.91;5072111;28;20556;-58
2023/08/04 03:39:01;;;;;;;14.00;12.60;;;24.60;94.50;;;25.23;61.03;94636.59;5070444;28;20497;-60
2023/08/04 03:41:28;;;;;;;14.93;12.90;;;24.60;94.50;;;25.24;61.23;94637.44;5070946;28;20522;-58
2023/08/04 03:43:55;;;;;;;14.63;13.10;;;24.60;94.50;;;25.26;61.38;94639.91;5066887;28;21157;-58
2023/08/04 03:46:23;;;;;;;17.63;12.10;;;24.60;94.50;;;25.26;60.72;94631.81;5068949;28;20474;-57
2023/08/04 03:48:50;;;;;;;14.37;12.90;;;24.60;94.50;;;25.28;61.34;94641.28;5072996;28;20457;-74
2023/08/04 03:51:18;;;;;;;13.73;12.33;;;24.60;94.50;;;25.30;60.61;94635.69;5069286;28;20484;-72
2023/08/04 03:53:45;;;;;;;17.97;13.07;;;24.70;94.50;;;25.32;60.95;94644.38;5068693;28;20458;-58
2023/08/04 03:56:14;;;;;;;19.33;12.47;;;24.70;94.50;;;25.33;60.97;94646.81;5069834;28;20462;-74
2023/08/04 03:58:41;;;;;;;15.80;13.30;;;24.70;94.50;;;25.35;60.75;94641.19;5076649;28;20453;-75
2023/08/04 04:01:09;;;;;;;16.60;13.50;;;24.70;94.40;;;25.35;61.10;94643.88;5074416;28;20733;-57
2023/08/04 04:03:36;;;;;;;16.70;13.10;;;24.70;94.30;;;25.35;61.26;94633.94;5067172;28;20950;-59
2023/08/04 04:06:03;;;;;;;12.03;10.97;;;24.70;94.50;;;25.37;61.37;94637.19;5072003;28;20468;-57
2023/08/04 04:08:31;;;;;;;15.20;13.40;;;24.70;94.60;;;25.33;61.10;94638.75;5072694;28;20967;-72
2023/08/04 04:10:59;;;;;;;13.77;12.30;;;24.70;94.60;;;25.40;60.76;94647.47;5080028;28;20466;-59
2023/08/04 04:13:28;;;;;;;17.80;11.90;;;24.80;94.60;;;25.43;60.82;94643.50;5072471;28;20856;-58
2023/08/04 04:15:55;;;;;;;21.70;12.63;;;24.70;94.60;;;25.47;61.21;94654.59;5072736;28;20481;-58
2023/08/04 04:18:22;;;;;;;15.63;12.43;;;24.80;94.50;;;25.50;60.41;94646.91;5071168;28;20545;-58
2023/08/04 04:20:49;;;;;;;20.13;12.50;;;24.80;94.30;;;25.53;60.22;94646.41;5078142;28;20997;-71
2023/08/04 04:23:17;;;;;;;15.70;12.47;;;24.80;94.20;;;25.56;60.21;94645.09;5071928;28;20957;-77
2023/08/04 04:25:44;;;;;;;16.10;14.03;;;24.90;94.10;;;25.58;60.36;94651.91;5077851;28;20541;-57
2023/08/04 04:28:11;;;;;;;14.07;12.40;;;24.90;94.10;;;25.61;60.44;94650.59;5074798;28;20460;-75
2023/08/04 04:30:40;;;;;;;17.30;13.27;;;25.00;94.00;;;25.65;60.02;94657.13;5072844;28;20917;-58
2023/08/04 04:33:07;;;;;;;16.60;12.37;;;24.90;93.90;;;25.66;59.86;94660.66;5072646;28;20946;-76
2023/08/04 04:35:35;;;;;;;19.07;12.90;;;25.00;94.00;;;25.68;60.15;94653.16;5072715;28;20983;-59
2023/08/04 04:38:02;;;;;;;13.40;12.17;;;25.00;93.80;;;25.70;59.67;94656.41;5071784;28;20457;-58
2023/08/04 04:40:29;;;;;;;21.70;13.17;;;25.10;93.80;;;25.72;59.87;94652.44;5076671;28;20505;-58
2023/08/04 04:42:56;;;;;;;18.63;13.53;;;25.10;94.20;;;25.75;59.76;94659.22;5071764;28;20833;-59
2023/08/04 04:45:24;;;;;;;17.80;12.73;;;25.10;93.70;;;25.80;60.04;94662.00;5076781;28;20481;-57
2023/08/04 04:47:52;;;;;;;13.50;11.97;;;25.10;93.60;;;25.87;59.75;94667.25;5074960;28;21031;-57
2023/08/04 04:50:20;;;;;;;19.07;12.57;;;25.20;93.60;;;25.95;59.69;94654.22;5072582;28;20784;-73
2023/08/04 04:52:47;;;;;;;16.70;12.53;;;25.20;93.50;;;26.06;59.30;94655.25;5076625;28;20691;-71
2023/08/04 04:55:14;;;;;;;19.53;12.70;;;25.40;93.60;;;26.16;59.38;94664.59;5072702;28;20466;-58
2023/08/04 04:57:41;;;;;;;14.80;11.80;;;25.40;93.40;;;26.22;59.10;94664.41;5070565;28;20462;-58
2023/08/04 05:00:10;;;;;;;15.40;13.83;;;25.50;93.30;;;26.30;58.76;94665.91;5073789;28;20484;-73
2023/08/04 05:02:37;;;;;;;18.20;12.90;;;25.60;93.20;;;26.34;59.56;94664.38;5072662;28;20536;-59
2023/08/04 05:05:08;;;;;;;18.63;12.97;;;25.70;93.10;;;26.39;58.79;94669.03;5075911;28;20498;-66
2023/08/04 05:07:35;;;;;;;19.13;13.00;;;25.70;93.00;;;26.41;58.67;94662.31;5081055;28;20493;-58
2023/08/04 05:10:02;;;;;;;14.80;12.10;;;25.70;92.90;;;26.47;58.42;94665.91;5074741;28;20935;-58
2023/08/04 05:12:29;;;;;;;21.97;13.00;;;25.80;92.80;;;26.52;58.49;94673.28;5069546;28;20473;-58
2023/08/04 05:14:57;;;;;;;21.57;12.37;;;25.80;92.80;;;26.57;58.49;94670.66;5071147;28;20955;-59
2023/08/04 05:17:24;;;;;;;20.70;11.77;;;25.90;92.70;;;26.64;58.66;94671.31;5070834;28;20859;-59
2023/08/04 05:19:51;;;;;;;22.47;14.00;;;26.00;92.60;;;26.69;58.33;94671.41;5073687;28;20489;-71
2023/08/04 05:22:20;;;;;;;23.60;15.80;;;26.00;92.50;;;26.75;58.34;94665.03;5077704;28;20981;-58
2023/08/04 05:24:47;;;;;;;23.97;13.93;;;26.10;92.40;;;26.82;58.07;94673.78;5073795;28;20499;-58
2023/08/04 05:27:15;;;;;;;17.40;14.47;;;26.10;92.30;;;26.89;58.05;94673.63;5078370;28;20465;-68
2023/08/04 05:29:42;;;;;;;42.93;14.87;;;26.20;92.20;;;26.98;57.97;94671.31;5073322;28;20452;-68
2023/08/04 05:32:10;;;;;;;16.77;13.60;;;26.30;92.20;;;27.07;57.76;94669.84;5078002;28;20829;-64
2023/08/04 05:34:37;;;;;;;22.30;14.20;;;26.40;92.00;;;27.22;57.36;94666.56;5069320;28;20547;-59
2023/08/04 05:37:05;;;;;;;21.60;13.70;;;26.50;91.90;;;27.40;57.42;94672.75;5069773;28;20479;-59
2023/08/04 05:39:35;;;;;;;39.40;14.27;;;26.60;91.70;;;27.58;56.85;94669.75;5079006;28;20916;-57
2023/08/04 05:42:02;;;;;;;42.93;15.50;;;26.80;91.30;;;27.78;56.35;94674.56;5079983;28;20469;-58
2023/08/04 05:44:29;;;;;;;28.37;13.90;;;27.00;91.30;;;27.93;56.11;94678.50;5072416;28;20454;-59
2023/08/04 05:46:57;;;;;;;20.13;15.27;;;27.10;90.80;;;28.07;55.95;94667.09;5082787;28;20473;-60
2023/08/04 05:49:24;;;;;;;24.77;13.30;;;27.30;90.50;;;28.24;55.70;94669.69;5072321;28;20446;-68
2023/08/04 05:51:52;;;;;;;19.27;12.97;;;27.50;90.20;;;28.41;54.70;94676.84;5080349;28;20657;-64
2023/08/04 05:54:19;;;;;;;19.07;14.17;;;27.60;89.50;;;28.56;54.97;94676.19;5073143;28;20446;-66
2023/08/04 05:56:48;;;;;;;17.37;13.57;;;27.80;88.60;;;28.73;54.45;94673.38;5082779;28;20480;-65
2023/08/04 05:59:15;;;;;;;17.97;12.90;;;27.90;87.40;;;28.93;53.29;94670.81;5076497;28;20441;-59
2023/08/04 06:01:42;;;;;;;15.37;12.90;;;28.10;86.60;;;29.12;52.86;94676.63;5081249;28;20284;-59
2023/08/04 06:04:09;;;;;;;21.53;13.13;;;28.30;85.80;;;29.32;53.38;94675.97;5072246;28;20563;-59
2023/08/04 06:06:37;;;;;;;21.33;12.97;;;28.50;85.00;;;29.53;52.07;94670.66;5076609;28;20223;-65
2023/08/04 06:09:04;;;;;;;25.23;13.20;;;28.70;84.20;;;29.75;51.99;94672.38;5072356;28;20200;-67
2023/08/04 06:11:31;;;;;;;18.47;14.03;;;28.90;83.40;;;29.97;51.45;94672.19;5078764;28;20679;-64
2023/08/04 06:14:00;;;;;;;19.70;14.40;;;29.10;82.40;;;30.15;51.10;94671.72;5074265;28;20558;-65
2023/08/04 06:16:27;;;;;;;21.03;13.20;;;29.30;81.50;;;30.35;50.29;94676.34;5078842;28;20222;-63
2023/08/04 06:18:56;;;;;;;24.33;13.30;;;29.50;80.60;;;30.53;49.25;94671.50;5071270;28;20203;-65
2023/08/04 06:21:23;;;;;;;23.27;14.87;;;29.70;78.30;;;30.60;48.91;94677.50;5077229;28;20401;-61
2023/08/04 06:23:50;;;;;;;22.00;13.20;;;29.70;77.20;;;30.57;48.58;94681.56;5073903;28;20200;-68
2023/08/04 06:26:18;;;;;;;20.27;14.20;;;29.70;76.60;;;30.51;48.97;94677.22;5067777;28;20659;-69
2023/08/04 06:28:45;;;;;;;22.70;13.43;;;29.70;76.10;;;30.50;49.42;94672.06;5071962;28;20200;-68
2023/08/04 06:31:14;;;;;;;24.20;14.03;;;29.70;75.90;;;30.55;48.67;94675.59;5074780;28;20220;-61
2023/08/04 06:33:43;;;;;;;16.40;13.20;;;29.80;75.80;;;30.68;48.45;94679.66;5068495;28;21172;-66
2023/08/04 06:36:10;;;;;;;17.70;13.77;;;29.80;75.30;;;30.85;48.53;94673.97;5074796;28;20656;-67
2023/08/04 06:38:37;;;;;;;20.27;12.43;;;30.00;75.10;;;31.02;47.89;94671.00;5070576;28;20199;-59
2023/08/04 06:41:04;;;;;;;23.90;14.07;;;30.20;74.90;;;31.20;46.99;94671.50;5068464;28;20704;-67
2023/08/04 06:43:32;;;;;;;22.60;15.43;;;30.30;73.40;;;31.32;46.77;94674.72;5069169;28;20201;-61
2023/08/04 06:45:59;;;;;;;15.63;12.87;;;30.50;72.90;;;31.41;46.97;94669.56;5072606;28;20269;-67
2023/08/04 06:48:28;;;;;;;18.27;15.25;;;30.60;73.40;;;31.42;46.19;94666.56;5071045;28;20215;-61
2023/08/04 06:50:55;;;;;;;15.75;13.07;;;30.60;71.70;;;31.33;46.79;94668.22;5072970;28;20264;-61
2023/08/04 06:53:22;;;;;;;26.75;15.52;;;30.70;72.00;;;31.29;46.59;94664.41;5068892;28;20199;-65
2023/08/04 06:55:49;;;;;;;27.25;15.60;;;30.60;71.90;;;31.24;46.72;94661.72;5073623;28;20290;-64
2023/08/04 06:58:17;;;;;;;17.38;14.48;;;30.50;71.90;;;31.25;47.60;94664.16;5070680;28;20226;-61
2023/08/04 07:00:45;;;;;;;30.13;15.23;;;30.50;72.60;;;31.22;46.80;94663.91;5080556;28;20242;-61
2023/08/04 07:03:12;;;;;;;16.80;14.15;;;30.50;71.90;;;31.23;47.11;94662.78;5068696;28;20253;-62
2023/08/04 07:05:41;;;;;;;28.10;13.77;;;30.50;72.30;;;31.33;47.47;94653.81;5071365;28;20220;-60
2023/08/04 07:08:08;;;;;;;20.60;13.27;;;30.60;72.10;;;31.52;46.89;94652.13;5075800;28;20199;-68
2023/08/04 07:10:36;;;;;;;21.58;14.52;;;30.70;72.10;;;31.87;46.16;94663.16;5076909;28;20601;-64
2023/08/04 07:13:03;;;;;;;35.65;12.60;;;31.00;71.70;;;32.07;45.09;94665.78;5069959;28;20744;-66
2023/08/04 07:15:32;;;;;;;25.67;13.80;;;31.20;69.50;;;32.15;45.34;94662.50;5069909;28;20217;-67
2023/08/04 07:17:59;;;;;;;20.38;12.43;;;31.40;70.90;;;32.26;45.47;94660.53;5070303;28;20295;-63
2023/08/04 07:20:28;;;;;;;20.08;14.25;;;31.40;70.10;;;32.45;44.76;94657.94;5073707;28;20238;-66
2023/08/04 07:22:57;;;;;;;16.40;14.23;;;31.60;69.10;;;32.75;44.85;94663.47;5072318;28;20200;-61
2023/08/04 07:25:24;;;;;;;24.77;13.30;;;31.90;68.80;;;33.06;43.65;94661.28;5069822;28;20599;-65
2023/08/04 07:27:51;;;;;;;21.52;14.52;;;32.20;67.50;;;33.36;42.90;94654.75;5071247;28;20545;-62
2023/08/04 07:30:19;;;;;;;22.40;14.07;;;32.50;66.60;;;33.66;43.45;94662.84;5066137;28;20207;-61
2023/08/04 07:32:46;;;;;;;25.65;13.43;;;32.80;66.40;;;33.92;42.24;94664.19;5072685;28;20215;-61
2023/08/04 07:35:14;;;;;;;16.58;13.43;;;33.00;65.50;;;34.21;40.93;94662.47;5066511;28;20283;-65
2023/08/04 07:37:41;;;;;;;34.47;13.88;;;33.30;63.60;;;34.16;41.27;94663.34;5071399;28;20633;-60
2023/08/04 07:40:12;;;;;;;18.25;14.45;;;33.30;62.70;;;34.11;41.08;94660.66;5071648;28;20234;-61
2023/08/04 07:42:39;;;;;;;22.73;12.95;;;33.30;63.00;;;34.05;40.58;94661.84;5078710;28;20203;-65
2023/08/04 07:45:08;;;;;;;15.38;12.98;;;33.30;61.70;;;34.10;41.17;94661.78;5081179;28;20196;-66
2023/08/04 07:47:36;;;;;;;18.80;12.15;;;33.30;62.50;;;34.33;41.18;94660.09;5081254;28;20463;-61
2023/08/04 07:50:03;;;;;;;16.92;11.63;;;33.50;62.30;;;34.61;40.16;94652.88;5073329;28;20329;-64
2023/08/04 07:52:30;;;;;;;15.77;11.98;;;33.70;61.30;;;34.68;39.86;94654.41;5080472;28;20196;-61
2023/08/04 07:54:57;;;;;;;16.60;12.38;;;33.80;59.40;;;34.82;39.86;94658.03;5077286;28;20199;-64
2023/08/04 07:57:26;;;;;;;14.85;12.80;;;34.00;60.60;;;35.12;39.38;94658.59;5081871;28;20240;-61
2023/08/04 07:59:53;;;;;;;15.38;11.60;;;34.20;59.30;;;35.20;38.44;94655.19;5075130;28;20215;-64
2023/08/04 08:02:21;;;;;;;21.27;12.02;;;34.30;58.80;;;35.19;38.57;94656.28;5082586;28;20196;-65
2023/08/04 08:04:48;;;;;;;12.90;11.52;;;34.40;58.80;;;35.35;39.51;94654.94;5075728;28;20206;-63
2023/08/04 08:07:15;;;;;;;15.10;11.98;;;34.50;59.10;;;35.66;38.27;94654.31;5082511;28;20315;-62
2023/08/04 08:09:43;;;;;;;16.75;11.88;;;34.70;58.60;;;36.01;37.45;94653.94;5082315;28;20214;-63
2023/08/04 08:12:10;;;;;;;15.90;11.25;;;35.10;57.30;;;36.18;36.69;94650.56;5077513;28;20220;-62
2023/08/04 08:14:38;;;;;;;22.15;11.15;;;35.30;56.80;;;36.48;36.80;94651.00;5077480;28;20741;-60
2023/08/04 08:17:06;;;;;;;17.35;10.75;;;35.60;56.20;;;36.76;34.66;94647.06;5076896;28;20266;-64
2023/08/04 08:19:33;;;;;;;11.98;10.85;;;35.80;53.90;;;37.08;35.50;94650.63;5076347;28;20284;-63
2023/08/04 08:22:01;;;;;;;17.17;11.48;;;36.10;54.60;;;37.19;34.78;94642.16;5075918;28;20304;-62
2023/08/04 08:24:28;;;;;;;12.50;10.88;;;36.30;53.50;;;37.25;34.76;94640.91;5078066;28;20195;-64
2023/08/04 08:26:55;;;;;;;15.00;10.65;;;36.40;53.50;;;37.03;34.92;94647.22;5076519;28;20219;-64
2023/08/04 08:29:22;;;;;;;21.10;11.95;;;36.20;53.20;;;36.87;34.63;94644.06;5071314;28;20206;-59
2023/08/04 08:31:51;;;;;;;10.60;9.70;;;36.10;53.20;;;36.78;35.24;94636.59;5075739;28;20224;-59
2023/08/04 08:34:18;;;;;;;14.15;10.65;;;36.00;53.40;;;36.76;35.54;94640.75;5076312;28;20194;-59
2023/08/04 08:36:45;;;;;;;14.63;11.90;;;35.90;54.00;;;36.95;34.56;94637.81;5073712;28;20219;-61
2023/08/04 08:39:13;;;;;;;13.38;9.80;;;36.10;53.00;;;36.97;34.24;94635.56;5073126;28;20208;-64
2023/08/04 08:41:40;;;;;;;10.48;9.38;;;36.10;52.90;;;37.02;34.47;94627.22;5079420;28;20334;-66
2023/08/04 08:44:09;;;;;;;13.60;10.20;;;36.20;53.40;;;37.47;34.70;94631.81;5075874;28;20203;-71
2023/08/04 08:46:36;;;;;;;10.05;9.10;;;36.50;53.30;;;38.03;34.59;94629.41;5071515;28;20227;-66
2023/08/04 08:49:05;;;;;;;10.68;9.63;;;37.00;53.30;;;38.56;33.47;94628.34;5078470;28;20188;-62
2023/08/04 08:51:32;;;;;;;9.80;8.82;;;37.50;51.70;;;39.00;32.68;94625.56;5076334;28;20216;-57
2023/08/04 08:53:59;;;;;;;12.18;9.77;;;37.90;50.80;;;39.21;31.35;94614.69;5083205;28;20203;-58
2023/08/04 08:56:27;;;;;;;10.48;9.48;;;38.20;48.80;;;39.01;30.53;94615.34;5077629;28;20219;-63
2023/08/04 08:58:55;;;;;;;13.25;10.38;;;38.00;47.60;;;38.74;31.70;94620.09;5077002;28;20360;-57
2023/08/04 09:01:22;;;;;;;15.27;9.55;;;38.00;48.60;;;38.96;32.22;94615.53;5075558;28;20235;-60
2023/08/04 09:03:49;;;;;;;9.68;8.60;;;38.10;49.30;;;39.35;30.99;94613.66;5073342;28;20192;-57
2023/08/04 09:06:18;;;;;;;10.55;9.48;;;38.40;48.90;;;39.77;31.08;94614.63;5079218;28;20216;-58
2023/08/04 09:08:45;;;;;;;9.13;8.32;;;38.70;47.90;;;40.17;30.36;94609.88;5071334;28;20200;-57
2023/08/04 09:11:13;;;;;;;14.32;9.70;;;39.10;47.00;;;40.51;29.17;94608.81;5079102;28;20239;-57
2023/08/04 09:13:41;;;;;;;10.68;8.18;;;39.50;46.50;;;40.81;29.02;94611.47;5075837;28;20233;-60
2023/08/04 09:16:12;;;;;;;10.15;9.15;;;39.70;46.20;;;40.99;29.73;94601.88;5075559;28;20211;-61
2023/08/04 09:18:39;;;;;;;11.52;9.05;;;39.90;46.50;;;40.97;28.80;94609.69;5077219;28;20194;-59
2023/08/04 09:21:11;;;;;;;8.82;7.93;;;39.90;45.10;;;40.48;28.62;94609.47;5076694;28;20692;-61
2023/08/04 09:23:43;;;;;;;9.43;8.63;;;39.70;45.20;;;39.85;29.13;94599.19;5073617;28;20239;-58
2023/08/04 09:26:10;;;;;;;10.05;8.85;;;39.20;45.10;;;39.56;31.01;94589.78;5073604;28;20222;-57
2023/08/04 09:28:38;;;;;;;10.20;8.40;;;38.90;46.50;;;39.74;30.70;94590.50;5071602;28;20249;-58
2023/08/04 09:31:06;;;;;;;8.95;8.20;;;38.90;46.80;;;40.07;30.34;94583.53;5078920;28;20666;-58
2023/08/04 09:33:34;;;;;;;8.88;8.10;;;39.00;46.80;;;40.19;29.72;94588.28;5074703;28;20228;-59
2023/08/04 09:36:06;;;;;;;9.70;8.90;;;39.20;45.90;;;40.05;29.43;94588.53;5071556;28;20917;-62
2023/08/04 09:38:34;;;;;;;10.10;9.20;;;39.10;46.10;;;40.04;29.59;94582.25;5076569;28;20195;-58
2023/08/04 09:41:03;;;;;;;10.02;9.07;;;39.10;46.00;;;39.88;30.39;94589.44;5080016;28;20266;-59
2023/08/04 09:43:30;;;;;;;10.27;8.88;;;38.90;46.20;;;39.65;30.70;94577.91;5075948;28;20608;-62
2023/08/04 09:45:59;;;;;;;10.05;9.15;;;38.80;46.70;;;39.44;30.37;94584.16;5075904;28;20813;-57
2023/08/04 09:48:27;;;;;;;18.35;9.25;;;38.60;46.70;;;39.32;31.32;94584.03;5072688;28;20296;-62
2023/08/04 09:51:06;;;;;;;13.07;9.40;;;38.50;47.50;;;39.59;31.12;94574.56;5072384;28;20224;-58
2023/08/04 09:53:37;;;;;;;9.00;8.40;;;38.60;47.60;;;39.90;29.87;94570.66;5068855;28;20223;-57
2023/08/04 09:56:06;;;;;;;10.43;9.15;;;38.90;46.90;;;40.19;29.99;94574.50;5075823;28;20277;-60
2023/08/04 09:58:33;;;;;;;10.00;7.95;;;39.10;47.00;;;40.25;26.82;94562.97;5075795;28;20362;-62
2023/08/04 10:01:01;;;;;;;17.00;9.18;;;39.10;42.00;;;39.79;29.49;94568.28;5069642;28;20216;-57
2023/08/04 10:03:28;;;;;;;10.73;9.63;;;38.80;44.90;;;39.31;31.54;94563.97;5072945;28;20200;-60
2023/08/04 10:05:56;;;;;;;12.68;9.65;;;38.50;47.90;;;38.88;31.42;94562.97;5072615;28;20209;-62
2023/08/04 10:08:23;;;;;;;9.07;8.27;;;38.10;47.60;;;38.47;31.93;94563.50;5074087;28;20738;-63
2023/08/04 10:10:51;;;;;;;14.38;9.23;;;37.70;47.90;;;38.28;32.17;94561.09;5070685;28;20220;-58